Terminal Aerodrome Forecast
Issued by NWS Sterling, VA

Current Version | Previous Version | Text Only | Print | Product List | Glossary Off
Versions: 1 2 3 4 5 6 7 8 9 10 11 12 13 14 15 16 17 18 19 20 21 22 23 24 25 26 27 28

000
FTUS41 KLWX 141500 AAA
TAFDCA
TAF AMD
KDCA 141511Z 1415/1512 21021G28KT P6SM BKN035 OVC250
     FM150400 18014G24KT P6SM OVC090
     FM150600 18012G20KT P6SM OVC015
     FM151000 18013G21KT 6SM SHRA OVC008=

USA.gov is the U.S. government's official web portal to all federal, state and local government web resources and services.